West Melbourne, Florida
Current Conditions -  °F | °C
As of 10:53 PM on Sunday 23 Nov 2014 (Local Time) from KMLB Reporting Station
Clear Clear  
Wind Chill: 77°   Ceiling: Unl
Heat Index: 78°   Visibility: 10mi
Dew Point: 73°   Wind: 10mph
Humidity: 88%   Direction: 180°S
Pressure: 29.96"   Gusts: NA
Location:  28.0786°N, 80.6027°W
Report Text: KMLB 240353Z 18009KT 10SM CLR 25/23 A2996 RMK AO2 SLP146 T02500228
Loading
Personal Weather Stations






























Interactive Weather Map New forecast layout! Learn more

10-Day Weather Forecast

Advertisements
Track Severe Weather on mobile